sensor_id;sensor_type;location;lat;lon;timestamp;temperature;humidity
32865;DHT22;19219;44.500;11.188;2023-08-08T00:00:24;16.60;99.90
32865;DHT22;19219;44.500;11.188;2023-08-08T00:02:49;16.50;99.90
32865;DHT22;19219;44.500;11.188;2023-08-08T00:05:15;16.40;99.90
32865;DHT22;19219;44.500;11.188;2023-08-08T00:07:41;16.30;99.90
32865;DHT22;19219;44.500;11.188;2023-08-08T00:10:07;16.30;99.90
32865;DHT22;19219;44.500;11.188;2023-08-08T00:12:33;16.30;99.90
32865;DHT22;19219;44.500;11.188;2023-08-08T00:14:59;16.30;99.90
32865;DHT22;19219;44.500;11.188;2023-08-08T00:17:25;16.10;99.90
32865;DHT22;19219;44.500;11.188;2023-08-08T00:19:50;16.00;99.90
32865;DHT22;19219;44.500;11.188;2023-08-08T00:22:16;16.00;99.90
32865;DHT22;19219;44.500;11.188;2023-08-08T00:24:42;15.90;99.90
32865;DHT22;19219;44.500;11.188;2023-08-08T00:27:08;16.00;99.90
32865;DHT22;19219;44.500;11.188;2023-08-08T00:29:33;16.10;99.90
32865;DHT22;19219;44.500;11.188;2023-08-08T00:31:59;16.20;99.90
32865;DHT22;19219;44.500;11.188;2023-08-08T00:34:24;16.40;99.90
32865;DHT22;19219;44.500;11.188;2023-08-08T00:36:50;16.50;99.90
32865;DHT22;19219;44.500;11.188;2023-08-08T00:39:16;16.50;99.90
32865;DHT22;19219;44.500;11.188;2023-08-08T00:41:41;16.50;99.90
32865;DHT22;19219;44.500;11.188;2023-08-08T00:44:07;16.40;99.90
32865;DHT22;19219;44.500;11.188;2023-08-08T00:46:33;16.20;99.90
32865;DHT22;19219;44.500;11.188;2023-08-08T00:48:58;16.20;99.90
32865;DHT22;19219;44.500;11.188;2023-08-08T00:51:24;16.00;99.90
32865;DHT22;19219;44.500;11.188;2023-08-08T00:53:50;16.00;99.90
32865;DHT22;19219;44.500;11.188;2023-08-08T00:56:16;16.00;99.90
32865;DHT22;19219;44.500;11.188;2023-08-08T00:58:43;16.00;99.90
32865;DHT22;19219;44.500;11.188;2023-08-08T01:01:11;16.00;99.90
32865;DHT22;19219;44.500;11.188;2023-08-08T01:03:37;15.90;99.90
32865;DHT22;19219;44.500;11.188;2023-08-08T01:06:13;16.00;99.90
32865;DHT22;19219;44.500;11.188;2023-08-08T01:09:27;16.10;99.90
32865;DHT22;19219;44.500;11.188;2023-08-08T01:11:36;16.20;99.90
32865;DHT22;19219;44.500;11.188;2023-08-08T01:14:03;16.30;99.90
32865;DHT22;19219;44.500;11.188;2023-08-08T01:16:31;16.20;99.90
32865;DHT22;19219;44.500;11.188;2023-08-08T01:18:57;16.20;99.90
32865;DHT22;19219;44.500;11.188;2023-08-08T01:21:24;16.10;99.90
32865;DHT22;19219;44.500;11.188;2023-08-08T01:23:56;15.90;99.90
32865;DHT22;19219;44.500;11.188;2023-08-08T01:26:22;15.80;99.90
32865;DHT22;19219;44.500;11.188;2023-08-08T01:28:52;15.60;99.90
32865;DHT22;19219;44.500;11.188;2023-08-08T01:31:18;15.50;99.90
32865;DHT22;19219;44.500;11.188;2023-08-08T01:33:44;15.30;99.90
32865;DHT22;19219;44.500;11.188;2023-08-08T01:36:29;15.20;99.90
32865;DHT22;19219;44.500;11.188;2023-08-08T01:38:58;15.20;99.90
32865;DHT22;19219;44.500;11.188;2023-08-08T01:41:28;15.30;99.90
32865;DHT22;19219;44.500;11.188;2023-08-08T01:43:54;15.30;99.90
32865;DHT22;19219;44.500;11.188;2023-08-08T01:46:20;15.30;99.90
32865;DHT22;19219;44.500;11.188;2023-08-08T01:48:47;15.30;99.90
32865;DHT22;19219;44.500;11.188;2023-08-08T01:51:12;15.40;99.90
32865;DHT22;19219;44.500;11.188;2023-08-08T01:53:38;15.50;99.90
32865;DHT22;19219;44.500;11.188;2023-08-08T01:56:04;15.60;99.90
32865;DHT22;19219;44.500;11.188;2023-08-08T01:58:29;15.50;99.90
32865;DHT22;19219;44.500;11.188;2023-08-08T02:00:55;15.40;99.90
32865;DHT22;19219;44.500;11.188;2023-08-08T02:03:21;15.30;99.90
32865;DHT22;19219;44.500;11.188;2023-08-08T02:05:46;15.30;99.90
32865;DHT22;19219;44.500;11.188;2023-08-08T02:08:12;15.40;99.90
32865;DHT22;19219;44.500;11.188;2023-08-08T02:10:38;15.50;99.90
32865;DHT22;19219;44.500;11.188;2023-08-08T02:13:04;15.60;99.90
32865;DHT22;19219;44.500;11.188;2023-08-08T02:15:30;15.60;99.90
32865;DHT22;19219;44.500;11.188;2023-08-08T02:17:55;15.50;99.90
32865;DHT22;19219;44.500;11.188;2023-08-08T02:20:21;15.30;99.90
32865;DHT22;19219;44.500;11.188;2023-08-08T02:22:47;15.30;99.90
32865;DHT22;19219;44.500;11.188;2023-08-08T02:25:12;15.30;99.90
32865;DHT22;19219;44.500;11.188;2023-08-08T02:27:38;15.30;99.90
32865;DHT22;19219;44.500;11.188;2023-08-08T02:30:04;15.40;99.90
32865;DHT22;19219;44.500;11.188;2023-08-08T02:32:30;15.50;99.90
32865;DHT22;19219;44.500;11.188;2023-08-08T02:34:56;15.50;99.90
32865;DHT22;19219;44.500;11.188;2023-08-08T02:37:22;15.40;99.90
32865;DHT22;19219;44.500;11.188;2023-08-08T02:39:47;15.50;99.90
32865;DHT22;19219;44.500;11.188;2023-08-08T02:42:13;15.50;99.90
32865;DHT22;19219;44.500;11.188;2023-08-08T02:44:38;15.40;99.90
32865;DHT22;19219;44.500;11.188;2023-08-08T02:47:04;15.10;99.90
32865;DHT22;19219;44.500;11.188;2023-08-08T02:49:30;14.90;99.90
32865;DHT22;19219;44.500;11.188;2023-08-08T02:51:56;14.90;99.90
32865;DHT22;19219;44.500;11.188;2023-08-08T02:54:21;14.80;99.90
32865;DHT22;19219;44.500;11.188;2023-08-08T02:56:47;14.80;99.90
32865;DHT22;19219;44.500;11.188;2023-08-08T02:59:12;14.70;99.90
32865;DHT22;19219;44.500;11.188;2023-08-08T03:01:38;14.80;99.90
32865;DHT22;19219;44.500;11.188;2023-08-08T03:04:05;14.80;99.90
32865;DHT22;19219;44.500;11.188;2023-08-08T03:06:31;14.90;99.90
32865;DHT22;19219;44.500;11.188;2023-08-08T03:08:57;14.90;99.90
32865;DHT22;19219;44.500;11.188;2023-08-08T03:11:22;14.90;99.90
32865;DHT22;19219;44.500;11.188;2023-08-08T03:13:48;14.80;99.90
32865;DHT22;19219;44.500;11.188;2023-08-08T03:16:14;14.80;99.90
32865;DHT22;19219;44.500;11.188;2023-08-08T03:18:40;14.80;99.90
32865;DHT22;19219;44.500;11.188;2023-08-08T03:21:05;14.80;99.90
32865;DHT22;19219;44.500;11.188;2023-08-08T03:23:31;14.80;99.90
32865;DHT22;19219;44.500;11.188;2023-08-08T03:25:57;14.60;99.90
32865;DHT22;19219;44.500;11.188;2023-08-08T03:28:23;14.70;99.90
32865;DHT22;19219;44.500;11.188;2023-08-08T03:30:48;14.50;99.90
32865;DHT22;19219;44.500;11.188;2023-08-08T03:33:14;14.30;99.90
32865;DHT22;19219;44.500;11.188;2023-08-08T03:35:40;14.30;99.90
32865;DHT22;19219;44.500;11.188;2023-08-08T03:38:05;14.30;99.90
32865;DHT22;19219;44.500;11.188;2023-08-08T03:40:31;14.20;99.90
32865;DHT22;19219;44.500;11.188;2023-08-08T03:42:57;14.20;99.90
32865;DHT22;19219;44.500;11.188;2023-08-08T03:45:23;14.10;99.90
32865;DHT22;19219;44.500;11.188;2023-08-08T03:47:49;14.10;99.90
32865;DHT22;19219;44.500;11.188;2023-08-08T03:50:15;14.10;99.90
32865;DHT22;19219;44.500;11.188;2023-08-08T03:52:40;14.10;99.90
32865;DHT22;19219;44.500;11.188;2023-08-08T03:55:06;14.20;99.90
32865;DHT22;19219;44.500;11.188;2023-08-08T03:57:32;14.20;99.90
32865;DHT22;19219;44.500;11.188;2023-08-08T03:59:57;14.10;99.90
32865;DHT22;19219;44.500;11.188;2023-08-08T04:02:24;14.00;99.90
32865;DHT22;19219;44.500;11.188;2023-08-08T04:04:50;13.80;99.90
32865;DHT22;19219;44.500;11.188;2023-08-08T04:07:16;13.80;99.90
32865;DHT22;19219;44.500;11.188;2023-08-08T04:09:41;13.90;99.90
32865;DHT22;19219;44.500;11.188;2023-08-08T04:12:08;13.90;99.90
32865;DHT22;19219;44.500;11.188;2023-08-08T04:14:33;13.80;99.90
32865;DHT22;19219;44.500;11.188;2023-08-08T04:16:59;13.80;99.90
32865;DHT22;19219;44.500;11.188;2023-08-08T04:19:25;13.80;99.90
32865;DHT22;19219;44.500;11.188;2023-08-08T04:21:50;13.80;99.90
32865;DHT22;19219;44.500;11.188;2023-08-08T04:24:16;13.80;99.90
32865;DHT22;19219;44.500;11.188;2023-08-08T04:26:42;13.90;99.90
32865;DHT22;19219;44.500;11.188;2023-08-08T04:29:08;14.00;99.90
32865;DHT22;19219;44.500;11.188;2023-08-08T04:31:33;14.10;99.90
32865;DHT22;19219;44.500;11.188;2023-08-08T04:34:00;14.20;99.90
32865;DHT22;19219;44.500;11.188;2023-08-08T04:36:27;14.30;99.90
32865;DHT22;19219;44.500;11.188;2023-08-08T04:38:53;14.40;99.90
32865;DHT22;19219;44.500;11.188;2023-08-08T04:41:18;14.60;99.90
32865;DHT22;19219;44.500;11.188;2023-08-08T04:43:44;14.50;99.90
32865;DHT22;19219;44.500;11.188;2023-08-08T04:46:10;14.50;99.90
32865;DHT22;19219;44.500;11.188;2023-08-08T04:48:36;14.40;99.90
32865;DHT22;19219;44.500;11.188;2023-08-08T04:51:04;14.40;99.90
32865;DHT22;19219;44.500;11.188;2023-08-08T04:53:30;14.30;99.90
32865;DHT22;19219;44.500;11.188;2023-08-08T04:55:56;14.30;99.90
32865;DHT22;19219;44.500;11.188;2023-08-08T04:58:22;14.20;99.90
32865;DHT22;19219;44.500;11.188;2023-08-08T05:00:47;14.30;99.90
32865;DHT22;19219;44.500;11.188;2023-08-08T05:03:13;14.30;99.90
32865;DHT22;19219;44.500;11.188;2023-08-08T05:05:39;14.40;99.90
32865;DHT22;19219;44.500;11.188;2023-08-08T05:08:05;14.50;99.90
32865;DHT22;19219;44.500;11.188;2023-08-08T05:10:30;14.60;99.90
32865;DHT22;19219;44.500;11.188;2023-08-08T05:12:57;14.70;99.90
32865;DHT22;19219;44.500;11.188;2023-08-08T05:15:23;14.80;99.90
32865;DHT22;19219;44.500;11.188;2023-08-08T05:17:48;14.90;99.90
32865;DHT22;19219;44.500;11.188;2023-08-08T05:20:14;15.00;99.90
32865;DHT22;19219;44.500;11.188;2023-08-08T05:22:40;15.20;99.90
32865;DHT22;19219;44.500;11.188;2023-08-08T05:25:06;15.30;99.90
32865;DHT22;19219;44.500;11.188;2023-08-08T05:27:32;15.40;99.90
32865;DHT22;19219;44.500;11.188;2023-08-08T05:29:58;15.60;99.90
32865;DHT22;19219;44.500;11.188;2023-08-08T05:32:24;15.70;99.90
32865;DHT22;19219;44.500;11.188;2023-08-08T05:34:51;15.80;99.90
32865;DHT22;19219;44.500;11.188;2023-08-08T05:37:17;15.90;99.90
32865;DHT22;19219;44.500;11.188;2023-08-08T05:39:43;16.00;99.90
32865;DHT22;19219;44.500;11.188;2023-08-08T05:42:08;16.10;99.90
32865;DHT22;19219;44.500;11.188;2023-08-08T05:44:34;16.10;99.90
32865;DHT22;19219;44.500;11.188;2023-08-08T05:47:00;16.20;99.90
32865;DHT22;19219;44.500;11.188;2023-08-08T05:49:25;16.30;99.90
32865;DHT22;19219;44.500;11.188;2023-08-08T05:51:51;16.40;99.90
32865;DHT22;19219;44.500;11.188;2023-08-08T05:54:17;16.50;99.90
32865;DHT22;19219;44.500;11.188;2023-08-08T05:56:42;16.60;99.90
32865;DHT22;19219;44.500;11.188;2023-08-08T05:59:08;16.70;99.90
32865;DHT22;19219;44.500;11.188;2023-08-08T06:01:34;16.90;99.90
32865;DHT22;19219;44.500;11.188;2023-08-08T06:04:00;17.00;99.90
32865;DHT22;19219;44.500;11.188;2023-08-08T06:06:26;17.20;99.90
32865;DHT22;19219;44.500;11.188;2023-08-08T06:08:52;17.30;99.90
32865;DHT22;19219;44.500;11.188;2023-08-08T06:11:18;17.30;99.90
32865;DHT22;19219;44.500;11.188;2023-08-08T06:13:44;17.40;99.90
32865;DHT22;19219;44.500;11.188;2023-08-08T06:16:09;17.60;99.90
32865;DHT22;19219;44.500;11.188;2023-08-08T06:18:36;17.70;99.90
32865;DHT22;19219;44.500;11.188;2023-08-08T06:21:02;17.80;99.90
32865;DHT22;19219;44.500;11.188;2023-08-08T06:23:27;18.00;99.90
32865;DHT22;19219;44.500;11.188;2023-08-08T06:25:53;18.10;99.90
32865;DHT22;19219;44.500;11.188;2023-08-08T06:28:19;18.40;99.90
32865;DHT22;19219;44.500;11.188;2023-08-08T06:30:45;18.80;99.90
32865;DHT22;19219;44.500;11.188;2023-08-08T06:33:10;19.50;99.90
32865;DHT22;19219;44.500;11.188;2023-08-08T06:35:36;20.20;99.90
32865;DHT22;19219;44.500;11.188;2023-08-08T06:38:02;20.90;99.90
32865;DHT22;19219;44.500;11.188;2023-08-08T06:40:28;21.40;99.90
32865;DHT22;19219;44.500;11.188;2023-08-08T06:42:54;21.80;99.90
32865;DHT22;19219;44.500;11.188;2023-08-08T06:45:21;22.40;99.90
32865;DHT22;19219;44.500;11.188;2023-08-08T06:47:46;22.70;99.90
32865;DHT22;19219;44.500;11.188;2023-08-08T06:50:12;23.20;99.90
32865;DHT22;19219;44.500;11.188;2023-08-08T06:52:38;23.50;99.90
32865;DHT22;19219;44.500;11.188;2023-08-08T06:55:04;23.90;99.90
32865;DHT22;19219;44.500;11.188;2023-08-08T06:57:33;24.00;99.90
32865;DHT22;19219;44.500;11.188;2023-08-08T06:59:59;24.00;99.90
32865;DHT22;19219;44.500;11.188;2023-08-08T07:02:24;23.80;99.90
32865;DHT22;19219;44.500;11.188;2023-08-08T07:04:50;23.70;99.90
32865;DHT22;19219;44.500;11.188;2023-08-08T07:07:16;23.60;99.20
32865;DHT22;19219;44.500;11.188;2023-08-08T07:09:42;23.40;99.20
32865;DHT22;19219;44.500;11.188;2023-08-08T07:12:08;23.60;98.30
32865;DHT22;19219;44.500;11.188;2023-08-08T07:14:33;23.80;99.00
32865;DHT22;19219;44.500;11.188;2023-08-08T07:16:59;24.30;99.00
32865;DHT22;19219;44.500;11.188;2023-08-08T07:19:25;24.50;96.50
32865;DHT22;19219;44.500;11.188;2023-08-08T07:21:50;24.60;96.40
32865;DHT22;19219;44.500;11.188;2023-08-08T07:24:16;24.60;96.60
32865;DHT22;19219;44.500;11.188;2023-08-08T07:26:42;25.10;96.20
32865;DHT22;19219;44.500;11.188;2023-08-08T07:29:08;25.60;95.10
32865;DHT22;19219;44.500;11.188;2023-08-08T07:31:34;25.90;91.30
32865;DHT22;19219;44.500;11.188;2023-08-08T07:33:59;26.20;91.20
32865;DHT22;19219;44.500;11.188;2023-08-08T07:36:25;26.60;88.30
32865;DHT22;19219;44.500;11.188;2023-08-08T07:38:51;27.00;85.80
32865;DHT22;19219;44.500;11.188;2023-08-08T07:41:17;27.10;83.70
32865;DHT22;19219;44.500;11.188;2023-08-08T07:43:45;27.50;80.10
32865;DHT22;19219;44.500;11.188;2023-08-08T07:46:10;27.60;77.70
32865;DHT22;19219;44.500;11.188;2023-08-08T07:48:36;27.90;75.00
32865;DHT22;19219;44.500;11.188;2023-08-08T07:51:02;28.10;72.10
32865;DHT22;19219;44.500;11.188;2023-08-08T07:53:28;28.20;74.30
32865;DHT22;19219;44.500;11.188;2023-08-08T07:55:54;28.30;71.50
32865;DHT22;19219;44.500;11.188;2023-08-08T07:58:20;28.10;68.40
32865;DHT22;19219;44.500;11.188;2023-08-08T08:00:47;28.00;70.60
32865;DHT22;19219;44.500;11.188;2023-08-08T08:03:13;28.10;69.30
32865;DHT22;19219;44.500;11.188;2023-08-08T08:05:38;28.20;65.70
32865;DHT22;19219;44.500;11.188;2023-08-08T08:08:04;28.30;65.00
32865;DHT22;19219;44.500;11.188;2023-08-08T08:10:30;28.40;66.50
32865;DHT22;19219;44.500;11.188;2023-08-08T08:12:56;28.50;65.80
32865;DHT22;19219;44.500;11.188;2023-08-08T08:15:24;28.70;65.90
32865;DHT22;19219;44.500;11.188;2023-08-08T08:17:50;29.00;65.90
32865;DHT22;19219;44.500;11.188;2023-08-08T08:20:16;29.00;62.90
32865;DHT22;19219;44.500;11.188;2023-08-08T08:22:41;29.10;65.10
32865;DHT22;19219;44.500;11.188;2023-08-08T08:25:07;29.20;63.80
32865;DHT22;19219;44.500;11.188;2023-08-08T08:27:35;29.50;64.10
32865;DHT22;19219;44.500;11.188;2023-08-08T08:30:03;29.70;61.60
32865;DHT22;19219;44.500;11.188;2023-08-08T08:32:32;29.50;58.70
32865;DHT22;19219;44.500;11.188;2023-08-08T08:34:59;29.60;58.50
32865;DHT22;19219;44.500;11.188;2023-08-08T08:37:24;29.80;54.70
32865;DHT22;19219;44.500;11.188;2023-08-08T08:39:50;29.50;55.90
32865;DHT22;19219;44.500;11.188;2023-08-08T08:42:16;29.50;58.10
32865;DHT22;19219;44.500;11.188;2023-08-08T08:44:43;29.70;58.10
32865;DHT22;19219;44.500;11.188;2023-08-08T08:47:12;29.80;57.30
32865;DHT22;19219;44.500;11.188;2023-08-08T08:49:38;29.80;60.50
32865;DHT22;19219;44.500;11.188;2023-08-08T08:52:05;30.10;56.40
32865;DHT22;19219;44.500;11.188;2023-08-08T08:54:32;30.10;55.50
32865;DHT22;19219;44.500;11.188;2023-08-08T08:56:58;30.40;54.70
32865;DHT22;19219;44.500;11.188;2023-08-08T08:59:24;30.40;54.90
32865;DHT22;19219;44.500;11.188;2023-08-08T09:01:51;30.40;50.60
32865;DHT22;19219;44.500;11.188;2023-08-08T09:04:19;30.30;53.70
32865;DHT22;19219;44.500;11.188;2023-08-08T09:06:47;30.20;50.80
32865;DHT22;19219;44.500;11.188;2023-08-08T09:09:13;30.00;51.00
32865;DHT22;19219;44.500;11.188;2023-08-08T09:11:42;29.60;49.80
32865;DHT22;19219;44.500;11.188;2023-08-08T09:14:17;29.70;52.00
32865;DHT22;19219;44.500;11.188;2023-08-08T09:16:44;29.90;49.50
32865;DHT22;19219;44.500;11.188;2023-08-08T09:19:11;30.30;50.00
32865;DHT22;19219;44.500;11.188;2023-08-08T09:21:37;30.10;49.50
32865;DHT22;19219;44.500;11.188;2023-08-08T09:24:03;29.80;50.00
32865;DHT22;19219;44.500;11.188;2023-08-08T09:26:29;29.80;50.40
32865;DHT22;19219;44.500;11.188;2023-08-08T09:28:55;29.70;51.00
32865;DHT22;19219;44.500;11.188;2023-08-08T09:31:20;29.70;53.00
32865;DHT22;19219;44.500;11.188;2023-08-08T09:33:46;29.80;53.60
32865;DHT22;19219;44.500;11.188;2023-08-08T09:36:17;29.50;52.40
32865;DHT22;19219;44.500;11.188;2023-08-08T09:38:45;29.30;53.60
32865;DHT22;19219;44.500;11.188;2023-08-08T09:41:11;29.40;53.30
32865;DHT22;19219;44.500;11.188;2023-08-08T09:43:37;29.50;53.50
32865;DHT22;19219;44.500;11.188;2023-08-08T09:46:03;29.40;53.70
32865;DHT22;19219;44.500;11.188;2023-08-08T09:48:30;29.50;53.50
32865;DHT22;19219;44.500;11.188;2023-08-08T09:50:58;29.70;55.00
32865;DHT22;19219;44.500;11.188;2023-08-08T09:53:27;29.80;55.20
32865;DHT22;19219;44.500;11.188;2023-08-08T09:55:54;29.70;54.80
32865;DHT22;19219;44.500;11.188;2023-08-08T09:58:21;29.80;55.10
32865;DHT22;19219;44.500;11.188;2023-08-08T10:00:49;29.70;52.80
32865;DHT22;19219;44.500;11.188;2023-08-08T10:03:16;29.70;55.40
32865;DHT22;19219;44.500;11.188;2023-08-08T10:05:45;29.80;55.90
32865;DHT22;19219;44.500;11.188;2023-08-08T10:08:14;30.00;54.50
32865;DHT22;19219;44.500;11.188;2023-08-08T10:10:41;30.00;53.30
32865;DHT22;19219;44.500;11.188;2023-08-08T10:13:08;30.00;53.70
32865;DHT22;19219;44.500;11.188;2023-08-08T10:15:37;29.90;53.80
32865;DHT22;19219;44.500;11.188;2023-08-08T10:18:03;29.90;54.30
32865;DHT22;19219;44.500;11.188;2023-08-08T10:20:31;30.00;56.80
32865;DHT22;19219;44.500;11.188;2023-08-08T10:22:59;29.80;53.10
32865;DHT22;19219;44.500;11.188;2023-08-08T10:25:27;29.70;53.00
32865;DHT22;19219;44.500;11.188;2023-08-08T10:28:08;29.50;53.60
32865;DHT22;19219;44.500;11.188;2023-08-08T10:30:58;29.60;56.00
32865;DHT22;19219;44.500;11.188;2023-08-08T10:33:26;29.50;54.40
32865;DHT22;19219;44.500;11.188;2023-08-08T10:36:00;29.50;55.80
32865;DHT22;19219;44.500;11.188;2023-08-08T10:38:50;29.60;55.20
32865;DHT22;19219;44.500;11.188;2023-08-08T10:41:21;29.40;55.00
32865;DHT22;19219;44.500;11.188;2023-08-08T10:43:57;29.50;55.10
32865;DHT22;19219;44.500;11.188;2023-08-08T10:46:33;29.50;54.90
32865;DHT22;19219;44.500;11.188;2023-08-08T10:49:01;29.80;54.20
32865;DHT22;19219;44.500;11.188;2023-08-08T10:51:43;29.70;54.10
32865;DHT22;19219;44.500;11.188;2023-08-08T10:56:47;29.60;54.30
32865;DHT22;19219;44.500;11.188;2023-08-08T11:01:50;29.50;53.50
32865;DHT22;19219;44.500;11.188;2023-08-08T11:04:21;29.50;55.40
32865;DHT22;19219;44.500;11.188;2023-08-08T11:06:47;29.50;53.90
32865;DHT22;19219;44.500;11.188;2023-08-08T11:09:16;29.60;56.10
32865;DHT22;19219;44.500;11.188;2023-08-08T11:11:43;29.80;57.60
32865;DHT22;19219;44.500;11.188;2023-08-08T11:16:36;29.70;54.90
32865;DHT22;19219;44.500;11.188;2023-08-08T11:19:02;29.70;54.20
32865;DHT22;19219;44.500;11.188;2023-08-08T11:21:28;29.70;57.00
32865;DHT22;19219;44.500;11.188;2023-08-08T11:23:54;29.70;57.30
32865;DHT22;19219;44.500;11.188;2023-08-08T11:26:20;29.80;54.30
32865;DHT22;19219;44.500;11.188;2023-08-08T11:28:54;29.60;53.80
32865;DHT22;19219;44.500;11.188;2023-08-08T11:31:20;29.60;51.40
32865;DHT22;19219;44.500;11.188;2023-08-08T11:33:50;29.50;51.00
32865;DHT22;19219;44.500;11.188;2023-08-08T11:36:16;29.60;52.80
32865;DHT22;19219;44.500;11.188;2023-08-08T11:38:43;29.50;52.20
32865;DHT22;19219;44.500;11.188;2023-08-08T11:41:12;29.60;52.10
32865;DHT22;19219;44.500;11.188;2023-08-08T11:43:40;29.70;53.40
32865;DHT22;19219;44.500;11.188;2023-08-08T11:46:12;29.80;53.30
32865;DHT22;19219;44.500;11.188;2023-08-08T11:48:39;29.70;49.70
32865;DHT22;19219;44.500;11.188;2023-08-08T11:51:06;29.50;49.40
32865;DHT22;19219;44.500;11.188;2023-08-08T11:53:33;29.60;51.50
32865;DHT22;19219;44.500;11.188;2023-08-08T11:56:03;29.50;52.30
32865;DHT22;19219;44.500;11.188;2023-08-08T11:58:29;29.60;47.20
32865;DHT22;19219;44.500;11.188;2023-08-08T12:00:56;29.50;49.90
32865;DHT22;19219;44.500;11.188;2023-08-08T12:03:24;29.50;50.80
32865;DHT22;19219;44.500;11.188;2023-08-08T12:05:51;29.50;50.20
32865;DHT22;19219;44.500;11.188;2023-08-08T12:08:20;29.30;48.30
32865;DHT22;19219;44.500;11.188;2023-08-08T12:10:50;29.50;50.70
32865;DHT22;19219;44.500;11.188;2023-08-08T12:13:23;29.60;49.50
32865;DHT22;19219;44.500;11.188;2023-08-08T12:15:49;29.60;46.30
32865;DHT22;19219;44.500;11.188;2023-08-08T12:18:18;29.70;45.70
32865;DHT22;19219;44.500;11.188;2023-08-08T12:20:45;29.70;46.10
32865;DHT22;19219;44.500;11.188;2023-08-08T12:23:11;29.80;48.50
32865;DHT22;19219;44.500;11.188;2023-08-08T12:25:37;29.70;46.20
32865;DHT22;19219;44.500;11.188;2023-08-08T12:28:03;29.60;46.80
32865;DHT22;19219;44.500;11.188;2023-08-08T12:30:30;29.60;46.80
32865;DHT22;19219;44.500;11.188;2023-08-08T12:32:57;29.70;47.10
32865;DHT22;19219;44.500;11.188;2023-08-08T12:35:23;29.60;47.50
32865;DHT22;19219;44.500;11.188;2023-08-08T12:37:52;29.50;47.40
32865;DHT22;19219;44.500;11.188;2023-08-08T12:40:17;29.60;48.20
32865;DHT22;19219;44.500;11.188;2023-08-08T12:42:43;29.50;47.70
32865;DHT22;19219;44.500;11.188;2023-08-08T12:45:09;29.60;47.30
32865;DHT22;19219;44.500;11.188;2023-08-08T12:47:38;29.60;45.60
32865;DHT22;19219;44.500;11.188;2023-08-08T12:50:07;29.50;46.70
32865;DHT22;19219;44.500;11.188;2023-08-08T12:52:36;29.50;45.70
32865;DHT22;19219;44.500;11.188;2023-08-08T12:55:03;29.50;44.50
32865;DHT22;19219;44.500;11.188;2023-08-08T12:57:31;29.50;45.00
32865;DHT22;19219;44.500;11.188;2023-08-08T12:59:57;29.50;42.80
32865;DHT22;19219;44.500;11.188;2023-08-08T13:02:22;29.50;45.50
32865;DHT22;19219;44.500;11.188;2023-08-08T13:04:48;29.40;44.80
32865;DHT22;19219;44.500;11.188;2023-08-08T13:07:14;29.50;46.60
32865;DHT22;19219;44.500;11.188;2023-08-08T13:09:39;29.60;45.90
32865;DHT22;19219;44.500;11.188;2023-08-08T13:12:05;29.60;45.00
32865;DHT22;19219;44.500;11.188;2023-08-08T13:14:31;29.70;45.10
32865;DHT22;19219;44.500;11.188;2023-08-08T13:16:57;29.80;46.00
32865;DHT22;19219;44.500;11.188;2023-08-08T13:19:23;29.90;48.70
32865;DHT22;19219;44.500;11.188;2023-08-08T13:21:51;29.90;46.80
32865;DHT22;19219;44.500;11.188;2023-08-08T13:24:17;29.90;46.30
32865;DHT22;19219;44.500;11.188;2023-08-08T13:26:43;29.90;46.50
32865;DHT22;19219;44.500;11.188;2023-08-08T13:29:09;29.80;47.20
32865;DHT22;19219;44.500;11.188;2023-08-08T13:31:35;29.80;46.80
32865;DHT22;19219;44.500;11.188;2023-08-08T13:34:01;29.80;46.10
32865;DHT22;19219;44.500;11.188;2023-08-08T13:36:26;29.90;46.80
32865;DHT22;19219;44.500;11.188;2023-08-08T13:38:52;29.90;46.50
32865;DHT22;19219;44.500;11.188;2023-08-08T13:41:18;30.00;46.20
32865;DHT22;19219;44.500;11.188;2023-08-08T13:43:43;30.00;45.90
32865;DHT22;19219;44.500;11.188;2023-08-08T13:46:09;30.10;46.00
32865;DHT22;19219;44.500;11.188;2023-08-08T13:48:38;30.10;44.50
32865;DHT22;19219;44.500;11.188;2023-08-08T13:51:04;30.00;46.40
32865;DHT22;19219;44.500;11.188;2023-08-08T13:53:29;30.00;45.70
32865;DHT22;19219;44.500;11.188;2023-08-08T13:55:55;30.00;45.40
32865;DHT22;19219;44.500;11.188;2023-08-08T13:58:21;30.00;46.00
32865;DHT22;19219;44.500;11.188;2023-08-08T14:00:50;30.00;45.40
32865;DHT22;19219;44.500;11.188;2023-08-08T14:03:17;30.00;45.40
32865;DHT22;19219;44.500;11.188;2023-08-08T14:05:43;30.10;46.30
32865;DHT22;19219;44.500;11.188;2023-08-08T14:08:09;30.10;45.60
32865;DHT22;19219;44.500;11.188;2023-08-08T14:10:35;30.20;46.70
32865;DHT22;19219;44.500;11.188;2023-08-08T14:13:01;30.30;47.20
32865;DHT22;19219;44.500;11.188;2023-08-08T14:15:27;30.30;44.70
32865;DHT22;19219;44.500;11.188;2023-08-08T14:17:54;30.30;46.30
32865;DHT22;19219;44.500;11.188;2023-08-08T14:20:20;30.30;45.60
32865;DHT22;19219;44.500;11.188;2023-08-08T14:22:46;30.20;44.80
32865;DHT22;19219;44.500;11.188;2023-08-08T14:25:13;30.10;45.10
32865;DHT22;19219;44.500;11.188;2023-08-08T14:27:38;30.10;44.70
32865;DHT22;19219;44.500;11.188;2023-08-08T14:30:04;30.10;45.60
32865;DHT22;19219;44.500;11.188;2023-08-08T14:32:30;30.10;45.70
32865;DHT22;19219;44.500;11.188;2023-08-08T14:34:56;30.10;44.00
32865;DHT22;19219;44.500;11.188;2023-08-08T14:37:22;30.20;43.60
32865;DHT22;19219;44.500;11.188;2023-08-08T14:39:48;30.30;43.40
32865;DHT22;19219;44.500;11.188;2023-08-08T14:42:13;30.30;44.80
32865;DHT22;19219;44.500;11.188;2023-08-08T14:44:39;30.40;44.30
32865;DHT22;19219;44.500;11.188;2023-08-08T14:47:05;30.50;44.80
32865;DHT22;19219;44.500;11.188;2023-08-08T14:49:31;30.40;43.90
32865;DHT22;19219;44.500;11.188;2023-08-08T14:51:57;30.30;44.70
32865;DHT22;19219;44.500;11.188;2023-08-08T14:54:23;30.30;44.80
32865;DHT22;19219;44.500;11.188;2023-08-08T14:56:49;30.10;46.00
32865;DHT22;19219;44.500;11.188;2023-08-08T14:59:16;30.20;44.10
32865;DHT22;19219;44.500;11.188;2023-08-08T15:01:42;30.20;44.50
32865;DHT22;19219;44.500;11.188;2023-08-08T15:04:08;30.30;46.50
32865;DHT22;19219;44.500;11.188;2023-08-08T15:06:36;30.20;44.00
32865;DHT22;19219;44.500;11.188;2023-08-08T15:09:03;30.20;44.40
32865;DHT22;19219;44.500;11.188;2023-08-08T15:11:29;30.10;45.10
32865;DHT22;19219;44.500;11.188;2023-08-08T15:13:55;30.10;45.80
32865;DHT22;19219;44.500;11.188;2023-08-08T15:16:21;30.10;45.10
32865;DHT22;19219;44.500;11.188;2023-08-08T15:18:46;30.10;45.80